createdAt,value
2022-12-11T00:00:28.057Z,79.39
2022-12-11T00:01:28.021Z,79.34
2022-12-11T00:02:28.077Z,79.38
2022-12-11T00:03:28.036Z,79.41
2022-12-11T00:04:28.013Z,79.43
2022-12-11T00:05:28.000Z,79.47
2022-12-11T00:06:27.974Z,79.49
2022-12-11T00:07:27.958Z,79.33
2022-12-11T00:08:27.999Z,79.31
2022-12-11T00:09:27.975Z,79.34
2022-12-11T00:10:27.958Z,79.41
2022-12-11T00:11:27.911Z,79.48
2022-12-11T00:12:27.917Z,79.32
2022-12-11T00:13:27.910Z,79.27
2022-12-11T00:14:27.870Z,79.10
2022-12-11T00:15:27.886Z,79.09
2022-12-11T00:16:27.920Z,79.09
2022-12-11T00:17:27.845Z,79.15
2022-12-11T00:18:27.833Z,79.14
2022-12-11T00:19:27.824Z,79.13
2022-12-11T00:20:27.832Z,79.14
2022-12-11T00:21:27.809Z,79.02
2022-12-11T00:22:27.807Z,78.97
2022-12-11T00:23:27.796Z,78.97
2022-12-11T00:24:27.775Z,78.91
2022-12-11T00:25:27.784Z,78.87
2022-12-11T00:26:27.755Z,78.79
2022-12-11T00:27:27.749Z,78.70
2022-12-11T00:28:27.735Z,78.65
2022-12-11T00:29:27.723Z,78.64
2022-12-11T00:30:27.709Z,78.72
2022-12-11T00:31:27.772Z,78.74
2022-12-11T00:32:28.541Z,78.63
2022-12-11T00:33:27.679Z,78.57
2022-12-11T00:34:27.667Z,78.57
2022-12-11T00:35:27.654Z,78.59
2022-12-11T00:36:27.654Z,78.62
2022-12-11T00:37:27.686Z,78.67
2022-12-11T00:38:27.628Z,78.49
2022-12-11T00:39:27.607Z,78.31
2022-12-11T00:40:27.595Z,78.25
2022-12-11T00:41:27.587Z,78.18
2022-12-11T00:42:27.603Z,78.13
2022-12-11T00:43:27.576Z,78.15
2022-12-11T00:44:27.560Z,78.08
2022-12-11T00:45:27.557Z,78.09
2022-12-11T00:46:27.535Z,78.10
2022-12-11T00:47:27.547Z,77.99
2022-12-11T00:48:27.517Z,78.03
2022-12-11T00:49:27.505Z,78.12
2022-12-11T00:50:27.491Z,78.21
2022-12-11T00:51:27.495Z,78.25
2022-12-11T00:52:27.495Z,78.16
2022-12-11T00:53:27.458Z,78.12
2022-12-11T00:54:27.452Z,78.12
2022-12-11T00:55:27.442Z,78.15
2022-12-11T00:56:27.427Z,78.20
2022-12-11T00:57:27.436Z,77.97
2022-12-11T00:58:27.412Z,77.84
2022-12-11T00:59:27.394Z,77.85
2022-12-11T01:00:27.387Z,77.92
2022-12-11T01:01:27.418Z,77.88
2022-12-11T01:02:27.405Z,77.89
2022-12-11T01:03:27.351Z,77.92
2022-12-11T01:04:27.341Z,77.95
2022-12-11T01:05:27.349Z,78.03
2022-12-11T01:06:27.320Z,78.11
2022-12-11T01:07:27.340Z,78.16
2022-12-11T01:08:27.390Z,78.16
2022-12-11T01:09:27.290Z,78.16
2022-12-11T01:10:27.329Z,78.09
2022-12-11T01:11:27.281Z,77.78
2022-12-11T01:12:27.271Z,77.68
2022-12-11T01:13:27.244Z,77.75
2022-12-11T01:14:27.265Z,77.83
2022-12-11T01:15:27.240Z,77.86
2022-12-11T01:16:27.227Z,77.71
2022-12-11T01:17:27.217Z,77.80
2022-12-11T01:18:27.200Z,77.90
2022-12-11T01:19:27.185Z,77.98
2022-12-11T01:20:27.173Z,77.99
2022-12-11T01:21:27.160Z,78.03
2022-12-11T01:22:27.173Z,77.93
2022-12-11T01:23:27.139Z,77.89
2022-12-11T01:24:27.135Z,77.76
2022-12-11T01:25:27.126Z,77.74
2022-12-11T01:26:27.103Z,77.71
2022-12-11T01:27:27.100Z,77.63
2022-12-11T01:28:27.098Z,77.63
2022-12-11T01:29:27.069Z,77.50
2022-12-11T01:30:27.131Z,77.51
2022-12-11T01:31:27.058Z,77.51
2022-12-11T01:32:27.053Z,77.54
2022-12-11T01:33:27.038Z,77.51
2022-12-11T01:34:27.039Z,77.55
2022-12-11T01:35:27.017Z,77.54
2022-12-11T01:36:27.005Z,77.54
2022-12-11T01:37:27.007Z,77.52
2022-12-11T01:38:26.984Z,77.58
2022-12-11T01:39:26.995Z,77.56
2022-12-11T01:40:26.978Z,77.32
2022-12-11T01:41:26.948Z,77.23
2022-12-11T01:42:26.965Z,77.32
2022-12-11T01:43:26.938Z,77.38
2022-12-11T01:44:26.918Z,77.42
2022-12-11T01:45:27.454Z,77.44
2022-12-11T01:46:26.952Z,77.45
2022-12-11T01:47:26.888Z,77.41
2022-12-11T01:48:26.889Z,77.39
2022-12-11T01:49:26.892Z,77.30
2022-12-11T01:50:26.852Z,77.29
2022-12-11T01:51:26.847Z,77.37
2022-12-11T01:52:26.826Z,77.19
2022-12-11T01:53:26.818Z,77.09
2022-12-11T01:54:26.805Z,77.26
2022-12-11T01:55:26.844Z,77.36
2022-12-11T01:56:26.783Z,77.38
2022-12-11T01:57:26.784Z,77.48
2022-12-11T01:58:26.773Z,77.53
2022-12-11T01:59:26.779Z,77.51
2022-12-11T02:00:26.753Z,77.44
2022-12-11T02:01:26.817Z,77.35
2022-12-11T02:02:26.795Z,77.32
2022-12-11T02:03:26.713Z,77.32
2022-12-11T02:04:26.696Z,77.30
2022-12-11T02:05:26.705Z,77.33
2022-12-11T02:06:26.686Z,77.39
2022-12-11T02:07:26.670Z,77.48
2022-12-11T02:08:26.716Z,77.51
2022-12-11T02:09:26.647Z,77.46
2022-12-11T02:10:26.661Z,77.27
2022-12-11T02:11:26.630Z,77.06
2022-12-11T02:12:26.621Z,76.83
2022-12-11T02:13:26.603Z,76.88
2022-12-11T02:14:26.593Z,76.97
2022-12-11T02:15:26.582Z,77.02
2022-12-11T02:16:26.617Z,77.09
2022-12-11T02:17:26.571Z,77.17
2022-12-11T02:18:26.552Z,77.22
2022-12-11T02:19:26.537Z,77.36
2022-12-11T02:20:26.572Z,77.35
2022-12-11T02:21:26.520Z,77.39
2022-12-11T02:22:26.503Z,77.43
2022-12-11T02:23:26.511Z,77.24
2022-12-11T02:24:26.493Z,77.17
2022-12-11T02:25:26.470Z,77.22
2022-12-11T02:26:26.480Z,77.29
2022-12-11T02:27:26.451Z,77.24
2022-12-11T02:28:26.445Z,77.12
2022-12-11T02:29:26.440Z,77.01
2022-12-11T02:30:26.432Z,76.96
2022-12-11T02:31:26.464Z,77.15
2022-12-11T02:32:26.401Z,77.26
2022-12-11T02:33:26.389Z,77.37
2022-12-11T02:34:26.384Z,77.47
2022-12-11T02:35:26.376Z,77.55
2022-12-11T02:36:26.378Z,77.63
2022-12-11T02:37:26.348Z,77.68
2022-12-11T02:38:26.336Z,77.75
2022-12-11T02:39:26.327Z,77.76
2022-12-11T02:40:26.312Z,77.87
2022-12-11T02:41:26.317Z,77.86
2022-12-11T02:42:26.291Z,77.80
2022-12-11T02:43:26.278Z,77.55
2022-12-11T02:44:26.268Z,77.49
2022-12-11T02:45:26.264Z,77.48
2022-12-11T02:46:26.270Z,77.41
2022-12-11T02:47:26.236Z,77.40
2022-12-11T02:48:26.226Z,77.40
2022-12-11T02:49:26.227Z,77.41
2022-12-11T02:50:26.205Z,77.43
2022-12-11T02:51:26.224Z,77.45
2022-12-11T02:52:26.187Z,77.44
2022-12-11T02:53:26.203Z,77.41
2022-12-11T02:54:26.163Z,77.42
2022-12-11T02:55:26.154Z,77.25
2022-12-11T02:56:26.159Z,76.93
2022-12-11T02:57:26.131Z,76.82
2022-12-11T02:58:26.125Z,76.89
2022-12-11T02:59:26.116Z,76.92
2022-12-11T03:00:26.107Z,76.87
2022-12-11T03:01:26.142Z,76.95
2022-12-11T03:02:26.130Z,77.00
2022-12-11T03:03:26.074Z,77.05
2022-12-11T03:04:26.088Z,77.13
2022-12-11T03:05:26.050Z,77.13
2022-12-11T03:06:26.043Z,77.13
2022-12-11T03:07:26.037Z,77.17
2022-12-11T03:08:26.084Z,77.18
2022-12-11T03:09:26.017Z,77.20
2022-12-11T03:10:25.998Z,77.22
2022-12-11T03:11:25.993Z,77.26
2022-12-11T03:12:25.981Z,77.32
2022-12-11T03:13:25.962Z,77.30
2022-12-11T03:14:25.954Z,77.23
2022-12-11T03:15:25.936Z,77.15
2022-12-11T03:16:25.955Z,77.20
2022-12-11T03:17:25.975Z,77.11
2022-12-11T03:18:25.903Z,77.04
2022-12-11T03:19:25.911Z,77.03
2022-12-11T03:20:25.880Z,77.09
2022-12-11T03:21:25.876Z,77.15
2022-12-11T03:22:25.874Z,77.19
2022-12-11T03:23:25.854Z,77.22
2022-12-11T03:24:25.856Z,77.28
2022-12-11T03:25:25.840Z,77.35
2022-12-11T03:26:25.815Z,77.31
2022-12-11T03:27:25.831Z,77.31
2022-12-11T03:28:25.799Z,77.31
2022-12-11T03:29:25.800Z,77.25
2022-12-11T03:30:25.834Z,77.21
2022-12-11T03:31:25.767Z,77.25
2022-12-11T03:32:25.771Z,77.22
2022-12-11T03:33:25.760Z,77.13
2022-12-11T03:34:25.729Z,77.07
2022-12-11T03:35:25.734Z,77.07
2022-12-11T03:36:25.719Z,77.10
2022-12-11T03:37:25.714Z,77.10
2022-12-11T03:38:25.701Z,77.10
2022-12-11T03:39:25.681Z,77.10
2022-12-11T03:40:25.682Z,77.17
2022-12-11T03:41:25.659Z,77.28
2022-12-11T03:42:25.658Z,77.30
2022-12-11T03:43:25.638Z,77.31
2022-12-11T03:44:25.634Z,77.32
2022-12-11T03:45:25.609Z,77.39
2022-12-11T03:46:25.655Z,77.45
2022-12-11T03:47:25.610Z,77.53
2022-12-11T03:48:25.599Z,77.53
2022-12-11T03:49:25.575Z,77.47
2022-12-11T03:50:25.565Z,77.38
2022-12-11T03:51:25.553Z,77.30
2022-12-11T03:52:25.558Z,77.27
2022-12-11T03:54:42.921Z,77.24
2022-12-11T03:55:42.912Z,77.03
2022-12-11T03:56:42.892Z,77.03
2022-12-11T03:57:42.915Z,77.08
2022-12-11T03:58:42.885Z,77.11
2022-12-11T03:59:42.861Z,77.20
2022-12-11T04:00:42.860Z,77.32
2022-12-11T04:01:42.884Z,77.34
2022-12-11T04:02:42.830Z,77.26
2022-12-11T04:03:42.839Z,77.20
2022-12-11T04:04:42.810Z,77.21
2022-12-11T04:05:42.806Z,77.32
2022-12-11T04:06:50.559Z,77.44
2022-12-11T04:07:42.819Z,77.55
2022-12-11T04:08:42.794Z,77.63
2022-12-11T04:09:42.759Z,77.71
2022-12-11T04:10:42.784Z,77.86
2022-12-11T04:11:42.739Z,78.01
2022-12-11T04:12:42.729Z,78.12
2022-12-11T04:13:42.741Z,78.19
2022-12-11T04:14:42.709Z,78.27
2022-12-11T04:15:42.749Z,78.27
2022-12-11T04:16:42.685Z,78.28
2022-12-11T04:17:42.707Z,78.34
2022-12-11T04:18:42.707Z,78.38
2022-12-11T04:19:42.656Z,78.44
2022-12-11T04:20:42.657Z,78.51
2022-12-11T04:21:42.625Z,78.57
2022-12-11T04:22:42.631Z,78.58
2022-12-11T04:23:42.605Z,78.66
2022-12-11T04:24:42.619Z,78.78
2022-12-11T04:25:42.591Z,78.82
2022-12-11T04:26:42.581Z,78.86
2022-12-11T04:27:42.580Z,78.89
2022-12-11T04:28:42.559Z,78.89
2022-12-11T04:29:42.553Z,78.92
2022-12-11T04:30:42.610Z,78.90
2022-12-11T04:31:42.527Z,78.86
2022-12-11T04:32:42.521Z,78.85
2022-12-11T04:33:42.501Z,78.78
2022-12-11T04:34:42.544Z,78.71
2022-12-11T04:35:42.479Z,78.70
2022-12-11T04:36:42.480Z,78.67
2022-12-11T04:37:42.454Z,78.62
2022-12-11T04:38:42.449Z,78.59
2022-12-11T04:39:42.480Z,78.53
2022-12-11T04:40:42.449Z,78.45
2022-12-11T04:41:42.447Z,78.43
2022-12-11T04:42:42.409Z,78.47
2022-12-11T04:43:42.411Z,78.48
2022-12-11T04:44:42.422Z,78.45
2022-12-11T04:45:42.400Z,78.45
2022-12-11T04:46:42.401Z,78.40
2022-12-11T04:47:42.362Z,78.33
2022-12-11T04:48:42.394Z,78.21
2022-12-11T04:49:42.331Z,78.08
2022-12-11T04:50:42.365Z,77.97
2022-12-11T04:51:42.320Z,77.95
2022-12-11T04:52:42.300Z,77.87
2022-12-11T04:53:42.301Z,77.78
2022-12-11T04:54:42.296Z,77.70
2022-12-11T04:55:42.280Z,77.72
2022-12-11T04:56:42.290Z,77.70
2022-12-11T04:57:42.261Z,77.67
2022-12-11T04:58:42.239Z,77.69
2022-12-11T04:59:42.248Z,77.70
2022-12-11T05:00:42.230Z,77.67
2022-12-11T05:01:42.240Z,77.55
2022-12-11T05:02:42.229Z,77.45
2022-12-11T05:03:42.192Z,77.35
2022-12-11T05:04:42.172Z,77.28
2022-12-11T05:05:42.183Z,77.19
2022-12-11T05:06:42.147Z,77.22
2022-12-11T05:07:42.143Z,77.25
2022-12-11T05:08:42.127Z,77.24
2022-12-11T05:09:42.114Z,77.24
2022-12-11T05:10:47.085Z,77.24
2022-12-11T05:11:43.100Z,77.13
2022-12-11T05:12:42.080Z,76.94
2022-12-11T05:13:42.081Z,76.70
2022-12-11T05:14:42.065Z,76.60
2022-12-11T05:15:42.144Z,76.63
2022-12-11T05:16:42.049Z,76.63
2022-12-11T05:17:42.054Z,76.56
2022-12-11T05:18:42.016Z,76.56
2022-12-11T05:19:42.030Z,76.51
2022-12-11T05:20:42.016Z,76.47
2022-12-11T05:21:41.986Z,76.48
2022-12-11T05:22:41.993Z,76.28
2022-12-11T05:23:41.974Z,76.18
2022-12-11T05:24:41.979Z,76.10
2022-12-11T05:25:41.972Z,76.00
2022-12-11T05:26:41.970Z,76.01
2022-12-11T05:27:41.925Z,76.02
2022-12-11T05:28:41.906Z,76.15
2022-12-11T05:29:42.128Z,76.27
2022-12-11T05:30:41.894Z,76.28
2022-12-11T05:31:41.965Z,76.24
2022-12-11T05:32:41.912Z,76.14
2022-12-11T05:33:41.866Z,76.05
2022-12-11T05:34:41.849Z,75.92
2022-12-11T05:35:41.838Z,75.90
2022-12-11T05:36:41.823Z,75.92
2022-12-11T05:37:41.838Z,75.92
2022-12-11T05:38:41.803Z,75.89
2022-12-11T05:39:41.795Z,75.92
2022-12-11T05:40:41.782Z,75.87
2022-12-11T05:41:41.790Z,75.90
2022-12-11T05:42:41.764Z,75.84
2022-12-11T05:43:41.796Z,75.73
2022-12-11T05:44:41.743Z,75.73
2022-12-11T05:45:41.813Z,75.73
2022-12-11T05:46:41.785Z,75.77
2022-12-11T05:47:41.705Z,75.79
2022-12-11T05:48:41.696Z,75.85
2022-12-11T05:49:41.732Z,75.97
2022-12-11T05:50:41.684Z,76.05
2022-12-11T05:51:41.688Z,76.10
2022-12-11T05:52:41.671Z,76.16
2022-12-11T05:53:41.674Z,76.10
2022-12-11T05:54:41.631Z,76.04
2022-12-11T05:55:41.624Z,76.09
2022-12-11T05:56:41.614Z,76.12
2022-12-11T05:57:41.620Z,76.08
2022-12-11T05:58:41.604Z,76.06
2022-12-11T05:59:41.602Z,76.04
2022-12-11T06:00:41.575Z,76.06
2022-12-11T06:01:41.696Z,76.12
2022-12-11T06:02:41.665Z,76.24
2022-12-11T06:03:41.538Z,76.23
2022-12-11T06:04:41.532Z,76.15
2022-12-11T06:05:41.534Z,76.11
2022-12-11T06:06:41.512Z,76.17
2022-12-11T06:07:41.542Z,76.21
2022-12-11T06:08:41.485Z,76.12
2022-12-11T06:09:41.472Z,76.03
2022-12-11T06:10:41.466Z,76.05
2022-12-11T06:11:41.460Z,76.15
2022-12-11T06:12:41.446Z,76.24
2022-12-11T06:13:41.438Z,76.34
2022-12-11T06:14:41.430Z,76.40
2022-12-11T06:15:41.407Z,76.48
2022-12-11T06:16:41.421Z,76.55
2022-12-11T06:17:41.404Z,76.56
2022-12-11T06:18:41.405Z,76.61
2022-12-11T06:19:41.371Z,76.65
2022-12-11T06:20:41.362Z,76.72
2022-12-11T06:21:41.348Z,76.82
2022-12-11T06:22:41.367Z,76.84
2022-12-11T06:23:41.329Z,76.77
2022-12-11T06:24:41.319Z,76.68
2022-12-11T06:25:41.316Z,76.60
2022-12-11T06:26:41.301Z,76.47
2022-12-11T06:27:41.281Z,76.36
2022-12-11T06:28:41.325Z,76.31
2022-12-11T06:29:41.273Z,76.14
2022-12-11T06:30:41.263Z,76.08
2022-12-11T06:31:41.298Z,76.14
2022-12-11T06:32:41.255Z,76.14
2022-12-11T06:33:41.229Z,76.14
2022-12-11T06:34:41.204Z,76.19
2022-12-11T06:35:42.533Z,76.12
2022-12-11T06:36:41.187Z,76.05
2022-12-11T06:37:41.171Z,76.03
2022-12-11T06:38:41.178Z,76.09
2022-12-11T06:39:41.152Z,76.18
2022-12-11T06:40:41.156Z,76.30
2022-12-11T06:41:41.144Z,76.33
2022-12-11T06:42:41.139Z,76.24
2022-12-11T06:43:41.134Z,76.14
2022-12-11T06:44:41.106Z,76.07
2022-12-11T06:45:41.135Z,76.14
2022-12-11T06:46:41.086Z,76.27
2022-12-11T06:47:41.081Z,76.43
2022-12-11T06:48:41.067Z,76.58
2022-12-11T06:49:41.049Z,76.65
2022-12-11T06:50:41.046Z,76.61
2022-12-11T06:51:41.059Z,76.54
2022-12-11T06:52:41.034Z,76.49
2022-12-11T06:53:41.016Z,76.50
2022-12-11T06:54:41.009Z,76.50
2022-12-11T06:55:40.990Z,76.43
2022-12-11T06:56:40.993Z,76.39
2022-12-11T06:57:40.973Z,76.34
2022-12-11T06:58:40.980Z,76.16
2022-12-11T06:59:40.949Z,76.14
2022-12-11T07:00:40.958Z,76.18
2022-12-11T07:01:40.925Z,76.25
2022-12-11T07:02:40.956Z,76.31
2022-12-11T07:03:40.917Z,76.30
2022-12-11T07:04:40.910Z,76.33
2022-12-11T07:05:40.892Z,76.34
2022-12-11T07:06:40.866Z,76.40
2022-12-11T07:07:41.860Z,76.50
2022-12-11T07:08:40.850Z,76.56
2022-12-11T07:09:40.851Z,76.51
2022-12-11T07:10:40.907Z,76.53
2022-12-11T07:11:40.920Z,76.49
2022-12-11T07:12:40.799Z,76.41
2022-12-11T07:13:40.798Z,76.34
2022-12-11T07:14:40.789Z,76.20
2022-12-11T07:15:40.796Z,76.33
2022-12-11T07:16:40.777Z,77.14
2022-12-11T07:17:40.931Z,76.88
2022-12-11T07:18:40.741Z,76.98
2022-12-11T07:19:40.742Z,76.87
2022-12-11T07:20:40.969Z,76.48
2022-12-11T07:21:40.701Z,76.12
2022-12-11T07:22:46.247Z,75.94
2022-12-11T07:23:41.696Z,75.77
2022-12-11T07:24:40.678Z,75.61
2022-12-11T07:25:40.655Z,75.48
2022-12-11T07:26:40.656Z,75.45
2022-12-11T07:27:40.690Z,75.43
2022-12-11T07:28:40.645Z,75.33
2022-12-11T07:29:40.610Z,75.38
2022-12-11T07:30:40.611Z,75.32
2022-12-11T07:31:40.741Z,75.18
2022-12-11T07:32:40.673Z,74.89
2022-12-11T07:33:40.597Z,74.68
2022-12-11T07:34:40.580Z,74.68
2022-12-11T07:35:40.564Z,74.68
2022-12-11T07:36:40.557Z,74.66
2022-12-11T07:37:40.561Z,74.70
2022-12-11T07:38:40.526Z,74.82
2022-12-11T07:39:40.640Z,74.98
2022-12-11T07:40:40.498Z,75.11
2022-12-11T07:41:40.543Z,75.14
2022-12-11T07:42:46.013Z,75.06
2022-12-11T07:43:41.495Z,75.03
2022-12-11T07:44:40.460Z,75.05
2022-12-11T07:45:40.503Z,75.12
2022-12-11T07:46:40.433Z,75.11
2022-12-11T07:47:40.492Z,75.13
2022-12-11T07:48:40.419Z,75.07
2022-12-11T07:49:40.437Z,75.07
2022-12-11T07:50:40.392Z,75.07
2022-12-11T07:51:40.417Z,75.03
2022-12-11T07:52:40.374Z,75.01
2022-12-11T07:53:40.387Z,74.87
2022-12-11T07:54:40.353Z,74.80
2022-12-11T07:55:40.343Z,74.82
2022-12-11T07:56:43.785Z,74.83
2022-12-11T07:57:40.362Z,74.84
2022-12-11T07:58:40.310Z,74.94
2022-12-11T07:59:40.292Z,74.98
2022-12-11T08:00:40.283Z,74.97
2022-12-11T08:01:40.358Z,74.87
2022-12-11T08:02:40.362Z,74.73
2022-12-11T08:03:40.278Z,74.74
2022-12-11T08:04:40.246Z,74.83
2022-12-11T08:05:40.244Z,74.78
2022-12-11T08:06:40.223Z,74.58
2022-12-11T08:07:40.220Z,74.33
2022-12-11T08:08:40.219Z,74.14
2022-12-11T08:09:40.185Z,74.15
2022-12-11T08:10:40.241Z,73.99
2022-12-11T08:11:40.164Z,73.76
2022-12-11T08:12:40.188Z,73.73
2022-12-11T08:13:40.158Z,73.80
2022-12-11T08:14:40.138Z,73.95
2022-12-11T08:15:40.146Z,74.10
2022-12-11T08:16:40.182Z,74.20
2022-12-11T08:17:40.437Z,74.31
2022-12-11T08:18:40.187Z,74.39
2022-12-11T08:19:40.076Z,74.46
2022-12-11T08:20:40.068Z,74.51
2022-12-11T08:21:40.057Z,74.55
2022-12-11T08:22:40.076Z,74.60
2022-12-11T08:23:40.050Z,74.65
2022-12-11T08:24:40.036Z,74.62
2022-12-11T08:25:40.039Z,74.51
2022-12-11T08:26:40.020Z,74.22
2022-12-11T08:27:40.001Z,74.00
2022-12-11T08:28:40.007Z,74.01
2022-12-11T08:29:39.998Z,74.03
2022-12-11T08:30:39.999Z,73.94
2022-12-11T08:31:39.956Z,73.85
2022-12-11T08:32:39.944Z,73.59
2022-12-11T08:33:39.948Z,73.55
2022-12-11T08:34:39.933Z,73.61
2022-12-11T08:35:39.932Z,73.36
2022-12-11T08:36:39.897Z,73.32
2022-12-11T08:37:39.899Z,73.42
2022-12-11T08:38:39.899Z,73.46
2022-12-11T08:39:39.878Z,73.61
2022-12-11T08:40:39.862Z,73.73
2022-12-11T08:41:39.852Z,73.87
2022-12-11T08:42:39.843Z,73.99
2022-12-11T08:43:39.847Z,74.12
2022-12-11T08:44:39.811Z,74.18
2022-12-11T08:45:39.801Z,74.16
2022-12-11T08:46:39.797Z,74.03
2022-12-11T08:47:39.782Z,73.93
2022-12-11T08:48:39.839Z,73.93
2022-12-11T08:49:39.775Z,73.77
2022-12-11T08:50:39.745Z,73.71
2022-12-11T08:51:39.739Z,73.71
2022-12-11T08:52:39.724Z,73.89
2022-12-11T08:53:39.731Z,73.95
2022-12-11T08:54:39.750Z,74.05
2022-12-11T08:55:39.699Z,74.12
2022-12-11T08:56:39.723Z,74.16
2022-12-11T08:57:39.684Z,74.25
2022-12-11T08:58:39.690Z,74.34
2022-12-11T08:59:39.692Z,74.42
2022-12-11T09:00:39.640Z,74.42
2022-12-11T09:01:39.739Z,74.39
2022-12-11T09:02:39.701Z,74.41
2022-12-11T09:03:39.603Z,74.31
2022-12-11T09:04:39.622Z,74.24
2022-12-11T09:05:39.597Z,74.27
2022-12-11T09:06:39.595Z,74.31
2022-12-11T09:07:39.611Z,74.38
2022-12-11T09:08:39.553Z,74.48
2022-12-11T09:09:39.552Z,74.38
2022-12-11T09:10:39.529Z,74.36
2022-12-11T09:11:39.529Z,74.36
2022-12-11T09:12:39.544Z,74.37
2022-12-11T09:13:39.517Z,74.37
2022-12-11T09:14:39.546Z,74.48
2022-12-11T09:15:39.494Z,74.60
2022-12-11T09:16:39.532Z,74.73
2022-12-11T09:17:39.510Z,74.80
2022-12-11T09:18:39.443Z,74.86
2022-12-11T09:19:39.577Z,74.94
2022-12-11T09:20:39.462Z,74.82
2022-12-11T09:21:39.421Z,74.76
2022-12-11T09:22:39.415Z,74.76
2022-12-11T09:23:39.395Z,74.78
2022-12-11T09:24:39.462Z,74.79
2022-12-11T09:25:39.457Z,74.78
2022-12-11T09:26:39.364Z,74.80
2022-12-11T09:27:39.410Z,74.79
2022-12-11T09:28:45.795Z,74.80
2022-12-11T09:29:40.417Z,74.81
2022-12-11T09:30:39.365Z,74.89
2022-12-11T09:31:39.408Z,74.96
2022-12-11T09:32:39.294Z,74.95
2022-12-11T09:33:39.287Z,74.78
2022-12-11T09:34:39.277Z,74.79
2022-12-11T09:35:39.306Z,74.78
2022-12-11T09:36:39.259Z,74.77
2022-12-11T09:37:39.265Z,74.74
2022-12-11T09:38:39.235Z,74.70
2022-12-11T09:39:39.269Z,74.71
2022-12-11T09:40:39.227Z,74.75
2022-12-11T09:41:39.234Z,74.88
2022-12-11T09:42:39.207Z,74.85
2022-12-11T09:43:39.175Z,74.81
2022-12-11T09:44:39.167Z,74.73
2022-12-11T09:45:39.192Z,74.54
2022-12-11T09:46:39.218Z,74.43
2022-12-11T09:47:39.138Z,74.49
2022-12-11T09:48:39.134Z,74.57
2022-12-11T09:49:39.137Z,74.75
2022-12-11T09:50:39.121Z,74.91
2022-12-11T09:51:39.094Z,75.12
2022-12-11T09:52:39.094Z,75.29
2022-12-11T09:53:39.093Z,75.35
2022-12-11T09:54:39.111Z,75.22
2022-12-11T09:55:39.071Z,75.10
2022-12-11T09:56:39.040Z,74.95
2022-12-11T09:57:39.047Z,74.74
2022-12-11T09:58:39.025Z,74.63
2022-12-11T09:59:39.017Z,74.63
2022-12-11T10:00:39.012Z,74.67
2022-12-11T10:01:39.030Z,74.77
2022-12-11T10:02:39.018Z,74.88
2022-12-11T10:03:38.972Z,75.00
2022-12-11T10:04:38.970Z,75.12
2022-12-11T10:05:38.989Z,75.17
2022-12-11T10:06:38.961Z,75.18
2022-12-11T10:07:38.938Z,75.20
2022-12-11T10:08:38.922Z,75.28
2022-12-11T10:09:38.904Z,75.32
2022-12-11T10:10:38.887Z,75.41
2022-12-11T10:11:38.902Z,75.57
2022-12-11T10:12:38.867Z,75.69
2022-12-11T10:13:38.862Z,75.77
2022-12-11T10:14:38.950Z,75.88
2022-12-11T10:15:38.921Z,76.04
2022-12-11T10:16:38.822Z,76.17
2022-12-11T10:17:38.829Z,76.27
2022-12-11T10:18:38.815Z,76.37
2022-12-11T10:19:38.792Z,76.46
2022-12-11T10:20:38.800Z,76.57
2022-12-11T10:21:38.772Z,76.60
2022-12-11T10:22:38.872Z,76.59
2022-12-11T10:23:38.751Z,76.58
2022-12-11T10:25:39.733Z,76.71
2022-12-11T10:26:38.729Z,76.81
2022-12-11T10:27:38.722Z,76.87
2022-12-11T10:28:38.699Z,76.87
2022-12-11T10:29:38.695Z,76.87
2022-12-11T10:30:38.683Z,76.80
2022-12-11T10:31:38.698Z,76.72
2022-12-11T10:32:38.696Z,76.70
2022-12-11T10:33:38.641Z,76.70
2022-12-11T10:34:38.661Z,76.75
2022-12-11T10:35:38.642Z,76.79
2022-12-11T10:36:38.618Z,76.71
2022-12-11T10:37:38.636Z,76.53
2022-12-11T10:38:38.622Z,76.49
2022-12-11T10:39:38.588Z,76.57
2022-12-11T10:40:38.585Z,76.66
2022-12-11T10:41:38.563Z,76.70
2022-12-11T10:42:44.076Z,76.72
2022-12-11T10:43:39.543Z,76.74
2022-12-11T10:44:38.525Z,76.79
2022-12-11T10:45:38.515Z,76.81
2022-12-11T10:46:38.545Z,76.88
2022-12-11T10:47:38.512Z,76.91
2022-12-11T10:48:44.061Z,77.03
2022-12-11T10:49:39.475Z,77.13
2022-12-11T10:50:38.464Z,77.25
2022-12-11T10:51:38.480Z,77.33
2022-12-11T10:52:38.488Z,77.43
2022-12-11T10:53:38.458Z,77.40
2022-12-11T10:54:38.434Z,77.40
2022-12-11T10:55:38.411Z,77.37
2022-12-11T10:56:38.403Z,77.33
2022-12-11T10:57:38.399Z,77.37
2022-12-11T10:58:38.436Z,77.48
2022-12-11T10:59:38.383Z,77.67
2022-12-11T11:00:38.403Z,77.81
2022-12-11T11:01:38.387Z,77.92
2022-12-11T11:02:38.382Z,77.99
2022-12-11T11:03:38.352Z,77.86
2022-12-11T11:04:38.341Z,77.77
2022-12-11T11:05:38.300Z,77.67
2022-12-11T11:06:38.281Z,77.65
2022-12-11T11:07:38.336Z,77.67
2022-12-11T11:08:38.271Z,77.61
2022-12-11T11:09:38.300Z,77.56
2022-12-11T11:10:38.240Z,77.52
2022-12-11T11:11:38.255Z,77.51
2022-12-11T11:12:38.236Z,77.56
2022-12-11T11:13:38.228Z,77.65
2022-12-11T11:14:38.225Z,77.72
2022-12-11T11:15:38.231Z,77.74
2022-12-11T11:16:38.193Z,77.85
2022-12-11T11:17:44.661Z,78.10
2022-12-11T11:18:39.164Z,78.44
2022-12-11T11:19:38.166Z,78.65
2022-12-11T11:20:38.164Z,78.73
2022-12-11T11:21:38.135Z,78.62
2022-12-11T11:22:38.163Z,78.57
2022-12-11T11:23:44.300Z,78.54
2022-12-11T11:24:39.121Z,78.34
2022-12-11T11:25:38.087Z,78.26
2022-12-11T11:27:11.612Z,78.24
2022-12-11T11:27:39.064Z,78.19
2022-12-11T11:28:38.080Z,78.06
2022-12-11T11:29:38.074Z,77.95
2022-12-11T11:30:38.057Z,77.76
2022-12-11T11:31:38.090Z,77.52
2022-12-11T11:32:38.014Z,77.43
2022-12-11T11:33:38.019Z,77.39
2022-12-11T11:34:37.993Z,78.05
2022-12-11T11:35:39.112Z,79.65
2022-12-11T11:36:37.970Z,80.50
2022-12-11T11:37:37.959Z,80.63
2022-12-11T11:38:37.940Z,80.30
2022-12-11T11:39:37.979Z,79.46
2022-12-11T11:40:37.950Z,78.61
2022-12-11T11:41:37.910Z,78.07
2022-12-11T11:42:37.906Z,77.96
2022-12-11T11:43:37.892Z,77.82
2022-12-11T11:44:37.878Z,77.71
2022-12-11T11:45:37.894Z,77.62
2022-12-11T11:46:38.007Z,77.55
2022-12-11T11:47:37.860Z,77.36
2022-12-11T11:48:37.877Z,77.41
2022-12-11T11:49:37.835Z,77.56
2022-12-11T11:50:37.849Z,77.65
2022-12-11T11:51:37.808Z,78.20
2022-12-11T11:52:37.800Z,78.70
2022-12-11T11:53:37.786Z,78.96
2022-12-11T11:54:37.785Z,79.35
2022-12-11T11:55:37.961Z,79.49
2022-12-11T11:56:37.779Z,79.01
2022-12-11T11:57:37.746Z,78.60
2022-12-11T11:58:37.729Z,78.18
2022-12-11T11:59:37.728Z,78.03
2022-12-11T12:00:37.708Z,77.94
2022-12-11T12:01:37.731Z,77.84
2022-12-11T12:02:37.762Z,77.83
2022-12-11T12:03:37.687Z,78.01
2022-12-11T12:04:37.665Z,78.18
2022-12-11T12:05:37.659Z,78.22
2022-12-11T12:06:37.662Z,78.22
2022-12-11T12:07:37.656Z,78.17
2022-12-11T12:08:37.640Z,78.07
2022-12-11T12:09:37.664Z,78.02
2022-12-11T12:10:37.614Z,77.85
2022-12-11T12:11:37.614Z,77.67
2022-12-11T12:12:37.581Z,77.62
2022-12-11T12:13:49.428Z,77.62
2022-12-11T12:14:53.964Z,77.60
2022-12-11T12:15:38.588Z,77.44
2022-12-11T12:16:52.732Z,76.85
2022-12-11T12:17:38.568Z,76.65
2022-12-11T12:18:37.511Z,76.66
2022-12-11T12:19:37.513Z,76.87
2022-12-11T12:20:37.492Z,77.12
2022-12-11T12:21:37.484Z,77.23
2022-12-11T12:22:37.510Z,77.14
2022-12-11T12:23:37.486Z,76.97
2022-12-11T12:24:37.462Z,76.99
2022-12-11T12:25:37.443Z,77.12
2022-12-11T12:26:37.439Z,77.08
2022-12-11T12:27:52.097Z,76.85
2022-12-11T12:28:38.439Z,76.73
2022-12-11T12:29:37.388Z,76.57
2022-12-11T12:30:37.400Z,76.49
2022-12-11T12:31:37.471Z,76.40
2022-12-11T12:32:37.369Z,76.29
2022-12-11T12:33:37.377Z,76.29
2022-12-11T12:34:37.342Z,76.32
2022-12-11T12:35:37.331Z,76.32
2022-12-11T12:36:37.323Z,76.33
2022-12-11T12:37:37.328Z,76.33
2022-12-11T12:38:37.337Z,76.32
2022-12-11T12:39:37.323Z,76.30
2022-12-11T12:40:37.284Z,76.36
2022-12-11T12:41:37.266Z,76.41
2022-12-11T12:42:37.256Z,76.41
2022-12-11T12:43:37.330Z,76.34
2022-12-11T12:44:37.247Z,76.36
2022-12-11T12:45:37.271Z,76.32
2022-12-11T12:46:37.208Z,76.21
2022-12-11T12:47:37.200Z,76.07
2022-12-11T12:48:37.192Z,76.12
2022-12-11T12:49:37.225Z,76.17
2022-12-11T12:50:37.178Z,76.11
2022-12-11T12:51:37.160Z,75.99
2022-12-11T12:52:37.158Z,75.75
2022-12-11T12:53:37.148Z,75.61
2022-12-11T12:54:37.129Z,75.25